Time;durP1;ratioP1;P1;durP2;ratioP2;P2;SDS_P1;SDS_P2;PMS_P1;PMS_P2;Temp;Humidity;BMP_temperature;BMP_pressure;BME280_temperature;BME280_humidity;BME280_pressure;Samples;Min_cycle;Max_cycle;Signal;HPM_P1;HPM_P2
2022/09/22 00:04:19;;;;;;;3.87;2.70;;;9.20;99.90;;;;;;10481550;28;20212;-79
2022/09/22 00:09:20;;;;;;;6.77;2.40;;;9.20;99.90;;;;;;10479060;28;20324;-78
2022/09/22 00:14:24;;;;;;;3.37;2.40;;;9.20;99.90;;;;;;10493381;28;20226;-77
2022/09/22 00:19:33;;;;;;;6.43;2.30;;;9.20;99.90;;;;;;10503479;28;20233;-77
2022/09/22 00:24:34;;;;;;;2.60;2.20;;;9.20;99.90;;;;;;10475971;28;20263;-76
2022/09/22 00:29:35;;;;;;;4.10;2.40;;;9.20;99.90;;;;;;10495594;28;20587;-76
2022/09/22 00:34:35;;;;;;;5.73;2.03;;;9.20;99.90;;;;;;10489825;28;20229;-77
2022/09/22 00:39:36;;;;;;;4.93;3.17;;;9.10;99.90;;;;;;10479578;28;20224;-75
2022/09/22 00:44:41;;;;;;;4.57;2.40;;;9.10;99.90;;;;;;10478167;28;20222;-74
2022/09/22 00:50:06;;;;;;;4.43;2.53;;;9.10;99.90;;;;;;10482906;28;20654;-76
2022/09/22 00:55:14;;;;;;;5.40;2.30;;;9.10;99.90;;;;;;10481461;28;20240;-75
2022/09/22 01:00:15;;;;;;;2.43;2.00;;;9.00;99.90;;;;;;10495059;28;20196;-76
2022/09/22 01:05:17;;;;;;;3.73;2.50;;;9.00;99.90;;;;;;10493434;28;20213;-77
2022/09/22 01:10:18;;;;;;;2.53;2.27;;;9.00;99.90;;;;;;10497697;28;20189;-76
2022/09/22 01:15:32;;;;;;;3.83;2.20;;;8.90;99.90;;;;;;10476152;28;20206;-75
2022/09/22 01:21:21;;;;;;;3.37;2.30;;;8.80;99.90;;;;;;10496924;28;20221;-75
2022/09/22 01:26:31;;;;;;;4.27;2.63;;;8.70;99.90;;;;;;10484944;28;20226;-76
2022/09/22 01:31:49;;;;;;;4.57;2.20;;;8.70;99.90;;;;;;10478484;28;20229;-75
2022/09/22 01:37:12;;;;;;;3.37;2.70;;;8.60;99.90;;;;;;10492324;28;20835;-76
2022/09/22 01:42:22;;;;;;;2.10;1.90;;;8.60;99.90;;;;;;10496120;28;20240;-76
2022/09/22 01:47:30;;;;;;;3.00;2.30;;;8.50;99.90;;;;;;10493357;28;21093;-76
2022/09/22 01:52:34;;;;;;;2.90;2.40;;;8.50;99.90;;;;;;10495992;28;20218;-76
2022/09/22 01:57:54;;;;;;;2.90;2.23;;;8.50;99.90;;;;;;10488178;28;20221;-78
2022/09/22 02:03:07;;;;;;;3.60;2.27;;;8.40;99.90;;;;;;10494599;28;20305;-76
2022/09/22 02:08:13;;;;;;;2.53;2.30;;;8.40;99.90;;;;;;10495221;28;20222;-77
2022/09/22 02:13:14;;;;;;;2.63;2.40;;;8.30;99.90;;;;;;10473348;28;20698;-78
2022/09/22 02:18:23;;;;;;;2.77;2.50;;;8.30;99.90;;;;;;10488463;28;20289;-77
2022/09/22 02:23:24;;;;;;;3.83;2.27;;;8.20;99.90;;;;;;10494116;28;20225;-76
2022/09/22 02:28:25;;;;;;;2.70;2.30;;;8.20;99.90;;;;;;10476021;28;20225;-77
2022/09/22 02:33:27;;;;;;;3.50;2.50;;;8.10;99.90;;;;;;10478312;28;20269;-78
2022/09/22 02:38:39;;;;;;;3.67;2.57;;;8.00;99.90;;;;;;10493705;28;20546;-77
2022/09/22 02:44:07;;;;;;;4.00;2.60;;;7.90;99.90;;;;;;10494441;28;20314;-75
2022/09/22 02:49:13;;;;;;;7.70;2.73;;;7.80;99.90;;;;;;10501269;28;20244;-79
2022/09/22 02:54:14;;;;;;;4.40;2.60;;;7.70;99.90;;;;;;10485677;28;20227;-77
2022/09/22 02:59:18;;;;;;;6.77;3.40;;;7.70;99.90;;;;;;10482221;28;20218;-78
2022/09/22 03:04:22;;;;;;;4.87;3.30;;;7.60;99.90;;;;;;10473015;28;20310;-78
2022/09/22 03:09:22;;;;;;;6.43;3.20;;;7.60;99.90;;;;;;10474251;28;20660;-75
2022/09/22 03:14:23;;;;;;;5.53;3.20;;;7.60;99.90;;;;;;10499297;28;20326;-76
2022/09/22 03:19:23;;;;;;;5.43;3.40;;;7.50;99.90;;;;;;10501609;28;20799;-75
2022/09/22 03:24:24;;;;;;;6.47;3.57;;;7.50;99.90;;;;;;10482456;28;20620;-74
2022/09/22 03:29:24;;;;;;;7.43;3.47;;;7.60;99.90;;;;;;10491021;28;20746;-82
2022/09/22 03:34:25;;;;;;;5.93;3.73;;;7.50;99.90;;;;;;10500967;28;20225;-74
2022/09/22 03:39:26;;;;;;;8.97;4.10;;;7.50;99.90;;;;;;10497048;28;20215;-76
2022/09/22 03:44:26;;;;;;;5.43;3.43;;;7.50;99.90;;;;;;10498586;28;20222;-69
2022/09/22 03:49:27;;;;;;;8.43;3.23;;;7.50;99.90;;;;;;10492468;28;20732;-71
2022/09/22 03:54:32;;;;;;;5.83;3.07;;;7.50;99.90;;;;;;10493505;28;20223;-71
2022/09/22 03:59:32;;;;;;;4.33;2.70;;;7.60;99.90;;;;;;10483089;28;20310;-70
2022/09/22 04:04:36;;;;;;;7.37;3.00;;;7.60;99.90;;;;;;10497570;28;20644;-71
2022/09/22 04:09:37;;;;;;;6.50;3.63;;;7.60;99.90;;;;;;10477590;28;20590;-72
2022/09/22 04:14:37;;;;;;;3.80;3.40;;;7.60;99.90;;;;;;10494875;28;20234;-69
2022/09/22 04:19:38;;;;;;;4.40;3.63;;;7.50;99.90;;;;;;10479153;28;20332;-71
2022/09/22 04:24:38;;;;;;;4.03;3.53;;;7.50;99.90;;;;;;10497267;28;20219;-69
2022/09/22 04:29:39;;;;;;;6.07;3.50;;;7.40;99.90;;;;;;10492625;28;20219;-70
2022/09/22 04:34:39;;;;;;;3.90;3.50;;;7.50;99.90;;;;;;10500167;28;20539;-71
2022/09/22 04:39:40;;;;;;;4.40;3.27;;;7.50;99.90;;;;;;10489763;28;20222;-74
2022/09/22 04:44:41;;;;;;;3.90;3.43;;;7.60;99.90;;;;;;10494731;28;20230;-74
2022/09/22 04:49:41;;;;;;;6.33;3.60;;;7.60;99.90;;;;;;10494204;28;20242;-74
2022/09/22 04:54:42;;;;;;;6.53;3.57;;;7.60;99.90;;;;;;10496505;28;20231;-73
2022/09/22 04:59:42;;;;;;;6.07;4.13;;;7.60;99.90;;;;;;10487818;28;20496;-69
2022/09/22 05:04:43;;;;;;;8.30;3.70;;;7.60;99.90;;;;;;10496155;28;20257;-70
2022/09/22 05:09:43;;;;;;;6.33;3.63;;;7.60;99.90;;;;;;10477624;28;20222;-70
2022/09/22 05:14:44;;;;;;;5.43;3.77;;;7.50;99.90;;;;;;10476852;28;20254;-69
2022/09/22 05:19:45;;;;;;;6.37;3.90;;;7.60;99.90;;;;;;10490133;28;20237;-69
2022/09/22 05:24:46;;;;;;;5.73;4.17;;;7.50;99.90;;;;;;10492177;28;20216;-71
2022/09/22 05:29:46;;;;;;;8.27;4.23;;;7.50;99.90;;;;;;10473049;28;20215;-69
2022/09/22 05:34:47;;;;;;;6.37;4.00;;;7.50;99.90;;;;;;10487974;28;20227;-70
2022/09/22 05:39:47;;;;;;;5.97;4.33;;;7.50;99.90;;;;;;10474920;28;20275;-68
2022/09/22 05:44:48;;;;;;;11.07;4.40;;;7.50;99.90;;;;;;10493160;28;20235;-73
2022/09/22 05:49:49;;;;;;;6.17;4.13;;;7.50;99.90;;;;;;10483758;28;20215;-76
2022/09/22 05:54:50;;;;;;;7.27;4.57;;;7.50;99.90;;;;;;10463654;28;20230;-75
2022/09/22 05:59:51;;;;;;;7.17;4.30;;;7.60;99.90;;;;;;10493244;28;20226;-76
2022/09/22 06:04:52;;;;;;;9.03;5.10;;;7.60;99.90;;;;;;10474402;28;20297;-76
2022/09/22 06:09:55;;;;;;;6.77;5.00;;;7.80;99.90;;;;;;10491512;28;20700;-75
2022/09/22 06:14:56;;;;;;;13.80;7.47;;;7.90;99.90;;;;;;10467580;28;20221;-74
2022/09/22 06:19:59;;;;;;;14.43;7.40;;;8.10;99.90;;;;;;10493230;28;20404;-77
2022/09/22 06:25:00;;;;;;;11.53;5.37;;;8.30;99.90;;;;;;10469409;28;20604;-74
2022/09/22 06:30:01;;;;;;;12.33;5.97;;;8.50;99.90;;;;;;10464378;28;20305;-74
2022/09/22 06:35:02;;;;;;;8.27;4.13;;;8.70;99.90;;;;;;10493968;28;20306;-73
2022/09/22 06:40:04;;;;;;;8.27;3.50;;;9.30;99.90;;;;;;10466155;28;20283;-74
2022/09/22 06:45:06;;;;;;;8.27;3.47;;;9.90;99.90;;;;;;10463826;28;20596;-74
2022/09/22 06:50:08;;;;;;;5.27;3.30;;;9.90;99.90;;;;;;10472899;28;20186;-74
2022/09/22 06:55:09;;;;;;;9.37;3.30;;;10.10;99.90;;;;;;10476725;28;20250;-74
2022/09/22 07:00:11;;;;;;;7.60;3.20;;;10.20;99.90;;;;;;10485146;28;20201;-74
2022/09/22 07:05:12;;;;;;;6.50;3.30;;;10.40;99.90;;;;;;10479691;28;20203;-74
2022/09/22 07:10:13;;;;;;;9.63;3.00;;;10.60;99.90;;;;;;10480955;28;20274;-74
2022/09/22 07:15:17;;;;;;;5.57;4.00;;;10.50;99.90;;;;;;10487295;28;20218;-73
2022/09/22 07:20:19;;;;;;;8.90;5.00;;;10.70;99.90;;;;;;10487614;28;20187;-73
2022/09/22 07:25:19;;;;;;;6.13;3.30;;;10.80;99.90;;;;;;10481009;28;20202;-75
2022/09/22 07:30:25;;;;;;;3.47;2.77;;;11.00;99.90;;;;;;10469569;28;20179;-74
2022/09/22 07:35:27;;;;;;;4.27;2.30;;;11.30;99.90;;;;;;10485749;28;20235;-75
2022/09/22 07:40:29;;;;;;;6.37;2.43;;;11.60;99.90;;;;;;10476955;28;20226;-72
2022/09/22 07:45:33;;;;;;;6.87;2.30;;;14.10;99.90;;;;;;10480409;28;20294;-75
2022/09/22 07:50:33;;;;;;;4.23;1.80;;;18.30;99.90;;;;;;10489357;28;20568;-75
2022/09/22 07:55:36;;;;;;;2.83;1.50;;;20.60;93.30;;;;;;10472587;28;20234;-74
2022/09/22 08:00:37;;;;;;;4.67;2.30;;;22.30;79.80;;;;;;10479272;28;20230;-75
2022/09/22 08:05:39;;;;;;;2.17;1.97;;;23.50;68.50;;;;;;10486622;28;20220;-74
2022/09/22 08:10:40;;;;;;;2.73;1.90;;;23.10;66.90;;;;;;10487978;28;20230;-76
2022/09/22 08:15:41;;;;;;;3.03;1.80;;;23.80;60.70;;;;;;10471571;28;20242;-74
2022/09/22 08:20:42;;;;;;;2.27;1.90;;;25.00;58.40;;;;;;10492225;28;20235;-75
2022/09/22 08:25:42;;;;;;;5.00;2.40;;;25.10;54.70;;;;;;10471675;28;20210;-76
2022/09/22 08:30:46;;;;;;;5.53;2.30;;;26.70;52.80;;;;;;10476913;28;20637;-74
2022/09/22 08:36:27;;;;;;;4.93;2.47;;;26.20;52.60;;;;;;10504969;28;20587;-74
2022/09/22 08:41:43;;;;;;;2.23;1.97;;;25.50;52.20;;;;;;10484872;28;20609;-76
2022/09/22 08:46:46;;;;;;;4.53;1.90;;;26.10;52.80;;;;;;10497935;28;20218;-74
2022/09/22 08:51:52;;;;;;;3.23;2.20;;;26.30;50.30;;;;;;10470567;28;20298;-77
2022/09/22 08:56:57;;;;;;;4.53;2.43;;;26.70;49.20;;;;;;10482596;28;20215;-76
2022/09/22 09:02:15;;;;;;;4.27;2.20;;;27.90;47.50;;;;;;10448687;28;20220;-76
2022/09/22 09:07:30;;;;;;;4.60;2.07;;;28.30;46.00;;;;;;10485206;28;20649;-76
2022/09/22 09:12:43;;;;;;;3.23;2.10;;;28.20;44.40;;;;;;10475995;28;20354;-75
2022/09/22 09:17:46;;;;;;;5.10;2.50;;;28.00;45.60;;;;;;10486435;28;20229;-76
2022/09/22 09:22:54;;;;;;;4.10;2.63;;;27.20;46.60;;;;;;10484606;28;20690;-76
2022/09/22 09:28:15;;;;;;;8.37;2.20;;;28.50;45.10;;;;;;10458600;28;20243;-75
2022/09/22 09:33:32;;;;;;;3.50;1.90;;;28.20;44.80;;;;;;10472626;28;20702;-75
2022/09/22 09:38:39;;;;;;;5.33;2.60;;;29.60;43.20;;;;;;10474078;28;20223;-75
2022/09/22 09:43:41;;;;;;;2.13;1.47;;;29.70;43.20;;;;;;10470618;28;20258;-74
2022/09/22 09:49:01;;;;;;;3.80;1.60;;;29.80;40.00;;;;;;10480673;28;20247;-74
2022/09/22 09:54:05;;;;;;;5.87;1.70;;;28.50;40.80;;;;;;10476526;28;20912;-75
2022/09/22 10:04:31;;;;;;;3.93;1.60;;;28.60;40.60;;;;;;10481208;28;20220;-75
2022/09/22 10:09:32;;;;;;;1.37;1.27;;;28.60;40.50;;;;;;10476322;28;20240;-75
2022/09/22 10:14:34;;;;;;;2.30;1.20;;;28.70;40.50;;;;;;10473966;28;20693;-74
2022/09/22 10:19:34;;;;;;;3.23;1.47;;;28.60;38.70;;;;;;10478392;28;20227;-75
2022/09/22 10:24:36;;;;;;;1.73;1.10;;;29.10;38.70;;;;;;10477766;28;20631;-75
2022/09/22 10:29:40;;;;;;;1.87;1.17;;;28.60;38.20;;;;;;10477419;28;20260;-75
2022/09/22 10:35:03;;;;;;;4.53;1.23;;;27.60;39.20;;;;;;10481465;28;20254;-75
2022/09/22 10:40:13;;;;;;;2.83;1.50;;;28.40;38.50;;;;;;10458546;28;20229;-74
2022/09/22 10:45:18;;;;;;;3.73;1.50;;;29.10;39.00;;;;;;10470620;28;20311;-74
2022/09/22 10:50:42;;;;;;;7.17;1.80;;;29.50;39.40;;;;;;10472042;28;20182;-75
2022/09/22 10:56:04;;;;;;;2.77;1.50;;;28.40;39.70;;;;;;10471694;28;20296;-75
2022/09/22 11:01:17;;;;;;;2.73;1.43;;;29.60;39.50;;;;;;10491941;28;20226;-75
2022/09/22 11:12:18;;;;;;;2.17;1.73;;;29.80;37.50;;;;;;10480479;28;20215;-75
2022/09/22 11:17:45;;;;;;;4.33;1.70;;;29.60;36.30;;;;;;10484301;28;20872;-75
2022/09/22 11:23:26;;;;;;;3.93;1.63;;;26.20;43.00;;;;;;10485868;28;20224;-75
2022/09/22 11:28:50;;;;;;;2.43;1.03;;;23.00;47.90;;;;;;10383863;28;20250;-74
2022/09/22 11:34:11;;;;;;;2.83;1.20;;;21.00;50.40;;;;;;10468697;28;20733;-74
2022/09/22 11:39:42;;;;;;;1.77;0.90;;;20.10;54.20;;;;;;10488557;28;20206;-75
2022/09/22 11:45:12;;;;;;;3.80;1.40;;;19.80;54.60;;;;;;10497814;28;20321;-75
2022/09/22 11:50:27;;;;;;;1.43;1.10;;;19.70;55.30;;;;;;10491741;28;20325;-75
2022/09/22 11:55:38;;;;;;;2.90;1.10;;;19.40;56.50;;;;;;10495293;28;20247;-75
2022/09/22 12:00:49;;;;;;;3.40;1.13;;;19.30;57.20;;;;;;10494454;28;21258;-75
2022/09/22 12:06:04;;;;;;;2.07;1.10;;;19.40;56.70;;;;;;10471096;28;20240;-75
2022/09/22 12:11:06;;;;;;;2.30;0.83;;;19.30;56.60;;;;;;10482005;28;20217;-75
2022/09/22 12:16:21;;;;;;;2.17;0.93;;;19.30;56.60;;;;;;10496362;28;20287;-75
2022/09/22 12:21:40;;;;;;;2.00;0.97;;;19.30;57.40;;;;;;10496499;28;20217;-74
2022/09/22 12:26:45;;;;;;;4.33;1.30;;;19.00;56.60;;;;;;10476740;28;20255;-76
2022/09/22 12:31:48;;;;;;;2.80;0.80;;;18.50;56.20;;;;;;10490291;28;20216;-74
2022/09/22 12:36:56;;;;;;;2.33;0.80;;;18.30;56.90;;;;;;10482561;28;20217;-74
2022/09/22 12:42:03;;;;;;;3.23;1.00;;;18.30;57.00;;;;;;10462279;28;20223;-75
2022/09/22 12:47:20;;;;;;;1.43;0.90;;;18.40;56.60;;;;;;10490309;28;20234;-75
2022/09/22 12:52:57;;;;;;;1.10;0.70;;;18.70;55.50;;;;;;10486105;28;20257;-74
2022/09/22 12:58:29;;;;;;;2.17;0.87;;;18.80;55.80;;;;;;10368562;28;20224;-73
2022/09/22 13:03:29;;;;;;;2.53;0.93;;;18.70;55.60;;;;;;10453263;28;20266;-75
2022/09/22 13:08:30;;;;;;;4.53;1.10;;;18.80;57.10;;;;;;10471270;28;20840;-73
2022/09/22 13:13:30;;;;;;;4.80;1.00;;;18.70;55.10;;;;;;10471765;28;20224;-75
2022/09/22 13:18:36;;;;;;;3.20;1.03;;;18.60;55.90;;;;;;10484286;28;20220;-74
2022/09/22 13:24:01;;;;;;;2.23;0.90;;;18.60;56.60;;;;;;10488331;28;20691;-74
2022/09/22 13:29:19;;;;;;;3.03;1.30;;;18.50;55.60;;;;;;10484370;28;20209;-75
2022/09/22 13:34:30;;;;;;;3.20;0.90;;;18.50;55.80;;;;;;10465366;28;20233;-74
2022/09/22 13:39:37;;;;;;;2.47;0.90;;;18.60;56.30;;;;;;10500027;28;20219;-75
2022/09/22 13:44:40;;;;;;;2.20;1.10;;;18.70;56.20;;;;;;10475807;28;20237;-74
2022/09/22 13:49:50;;;;;;;1.93;0.87;;;18.50;55.50;;;;;;10477893;28;20227;-74
2022/09/22 13:54:58;;;;;;;2.53;0.80;;;18.60;56.50;;;;;;10475599;28;20216;-72
2022/09/22 13:59:59;;;;;;;3.23;1.03;;;18.60;56.20;;;;;;10472739;28;20283;-73
2022/09/22 14:05:20;;;;;;;2.27;1.00;;;18.60;56.10;;;;;;10478202;28;20271;-72
2022/09/22 14:10:21;;;;;;;1.97;0.97;;;18.50;55.80;;;;;;10477273;28;20642;-73
2022/09/22 14:15:37;;;;;;;4.07;1.10;;;18.50;56.00;;;;;;10481515;28;20558;-72
2022/09/22 14:20:42;;;;;;;1.73;1.00;;;18.40;56.60;;;;;;10465928;28;20223;-74
2022/09/22 14:25:46;;;;;;;3.73;1.20;;;18.50;57.10;;;;;;10469419;28;20634;-73
2022/09/22 14:30:50;;;;;;;2.67;1.30;;;18.40;56.80;;;;;;10485810;28;20221;-72
2022/09/22 14:35:59;;;;;;;2.43;1.13;;;18.40;56.90;;;;;;10475774;28;20215;-74
2022/09/22 14:41:01;;;;;;;1.20;0.90;;;18.40;57.00;;;;;;10486184;28;20227;-73
2022/09/22 14:46:23;;;;;;;2.10;1.07;;;18.40;57.00;;;;;;10454345;28;20782;-73
2022/09/22 14:51:28;;;;;;;1.73;1.00;;;18.30;57.10;;;;;;10482475;28;20225;-73
2022/09/22 14:56:32;;;;;;;1.93;0.70;;;18.30;57.20;;;;;;10476402;28;20308;-73
2022/09/22 15:06:58;;;;;;;2.00;0.70;;;18.20;58.00;;;;;;10472650;28;20266;-73
2022/09/22 15:12:01;;;;;;;2.30;1.10;;;18.30;58.20;;;;;;10464428;28;20251;-73
2022/09/22 15:22:53;;;;;;;4.60;1.23;;;18.10;58.30;;;;;;10467109;28;20223;-73
2022/09/22 15:27:54;;;;;;;2.57;1.10;;;18.00;58.70;;;;;;10465134;28;20821;-73
2022/09/22 15:32:56;;;;;;;1.47;0.80;;;17.90;59.40;;;;;;10465786;28;20233;-74
2022/09/22 15:37:57;;;;;;;1.67;0.90;;;17.80;59.80;;;;;;10461727;28;20699;-73
2022/09/22 15:42:58;;;;;;;3.83;1.00;;;17.70;60.50;;;;;;10472317;28;20223;-74
2022/09/22 15:47:58;;;;;;;2.30;1.30;;;17.70;61.10;;;;;;10469666;28;20267;-73
2022/09/22 15:52:59;;;;;;;2.40;1.00;;;17.60;61.60;;;;;;10462938;28;20297;-73
2022/09/22 15:58:07;;;;;;;1.70;1.20;;;17.70;62.30;;;;;;10464410;28;20229;-72
2022/09/22 16:03:14;;;;;;;1.37;1.13;;;17.60;62.20;;;;;;10457862;28;20232;-73
2022/09/22 16:08:18;;;;;;;2.80;1.20;;;17.40;62.40;;;;;;10467845;28;20715;-73
2022/09/22 16:13:18;;;;;;;4.10;1.17;;;17.40;63.60;;;;;;10464984;28;20818;-74
2022/09/22 16:18:19;;;;;;;3.00;1.30;;;17.40;63.10;;;;;;10475611;28;20297;-73
2022/09/22 16:23:19;;;;;;;2.97;1.10;;;17.30;63.90;;;;;;10484408;28;20220;-72
2022/09/22 16:28:23;;;;;;;3.10;1.07;;;17.20;64.80;;;;;;10472186;28;20224;-73
2022/09/22 16:33:23;;;;;;;1.37;1.27;;;17.10;63.90;;;;;;10472141;28;20236;-75
2022/09/22 16:38:24;;;;;;;1.30;1.00;;;17.10;65.00;;;;;;10474061;28;20570;-73
2022/09/22 16:43:25;;;;;;;1.77;0.90;;;17.00;65.50;;;;;;10482480;28;20222;-73
2022/09/22 16:48:25;;;;;;;1.77;1.10;;;16.90;66.40;;;;;;10481294;28;20219;-73
2022/09/22 16:53:27;;;;;;;2.03;1.27;;;16.80;66.80;;;;;;10467975;28;20212;-73
2022/09/22 16:58:28;;;;;;;1.93;0.97;;;16.70;66.80;;;;;;10467910;28;20223;-73
2022/09/22 17:03:31;;;;;;;3.13;1.47;;;16.60;66.70;;;;;;10472374;28;20708;-73
2022/09/22 17:08:32;;;;;;;2.90;1.20;;;16.60;67.20;;;;;;10464165;28;20760;-73
2022/09/22 17:13:33;;;;;;;4.00;1.37;;;16.50;67.80;;;;;;10472744;28;20214;-73
2022/09/22 17:18:40;;;;;;;5.00;1.60;;;16.40;68.50;;;;;;10480770;28;20226;-74
2022/09/22 17:23:41;;;;;;;6.47;1.30;;;16.20;69.60;;;;;;10486848;28;20248;-73
2022/09/22 17:28:42;;;;;;;3.80;1.40;;;16.10;70.30;;;;;;10474353;28;20274;-73
2022/09/22 17:33:46;;;;;;;3.47;1.50;;;15.90;71.10;;;;;;10475368;28;20228;-73
2022/09/22 17:38:49;;;;;;;2.03;1.33;;;15.80;72.00;;;;;;10474842;28;20292;-73
2022/09/22 17:43:54;;;;;;;7.27;1.90;;;15.70;72.80;;;;;;10474524;28;20696;-74
2022/09/22 17:59:40;;;;;;;3.43;2.03;;;15.40;75.20;;;;;;10473255;28;20228;-74
2022/09/22 18:04:43;;;;;;;8.97;3.00;;;15.30;75.00;;;;;;10474124;28;20242;-72
2022/09/22 18:09:46;;;;;;;5.63;2.90;;;15.30;76.10;;;;;;10473246;28;20323;-72
2022/09/22 18:14:49;;;;;;;3.23;2.17;;;15.10;77.20;;;;;;10471495;28;20788;-73
2022/09/22 18:19:53;;;;;;;4.97;2.07;;;15.00;77.70;;;;;;10463128;28;20591;-74
2022/09/22 18:24:55;;;;;;;4.33;2.03;;;14.90;78.40;;;;;;10463081;28;20616;-73
2022/09/22 18:29:58;;;;;;;5.03;2.00;;;14.80;78.80;;;;;;10477716;28;20710;-73
2022/09/22 18:34:58;;;;;;;3.57;1.70;;;14.70;79.50;;;;;;10469425;28;20222;-72
2022/09/22 18:39:59;;;;;;;4.77;2.00;;;14.60;79.70;;;;;;10465164;28;20226;-71
2022/09/22 18:45:00;;;;;;;3.53;1.50;;;14.50;80.50;;;;;;10483571;28;20245;-72
2022/09/22 18:50:01;;;;;;;3.93;1.60;;;14.40;80.80;;;;;;10462229;28;20613;-73
2022/09/22 18:55:03;;;;;;;4.50;1.47;;;14.40;81.00;;;;;;10476776;28;20220;-72
2022/09/22 19:00:04;;;;;;;5.13;1.93;;;14.30;81.20;;;;;;10463607;28;20230;-74
2022/09/22 19:05:05;;;;;;;1.80;1.53;;;14.30;81.70;;;;;;10470547;28;20208;-73
2022/09/22 19:10:07;;;;;;;4.20;2.10;;;14.20;82.40;;;;;;10478478;28;20519;-72
2022/09/22 19:15:12;;;;;;;4.13;1.90;;;14.20;83.00;;;;;;10474207;28;20184;-72
2022/09/22 19:20:19;;;;;;;3.63;1.90;;;14.10;83.70;;;;;;10458947;28;20202;-73
2022/09/22 19:25:21;;;;;;;2.93;2.03;;;14.00;84.30;;;;;;10476793;28;20215;-73
2022/09/22 19:30:22;;;;;;;5.13;2.00;;;14.00;84.90;;;;;;10473646;28;20187;-72
2022/09/22 19:35:22;;;;;;;3.00;1.83;;;13.90;85.40;;;;;;10483528;28;20188;-72
2022/09/22 19:40:23;;;;;;;3.63;2.00;;;13.80;86.20;;;;;;10475963;28;20191;-72
2022/09/22 19:45:25;;;;;;;2.50;1.77;;;13.70;86.80;;;;;;10458407;28;20235;-69
2022/09/22 19:50:25;;;;;;;5.07;2.03;;;13.70;87.80;;;;;;10464644;28;20285;-71
2022/09/22 19:55:26;;;;;;;4.23;1.80;;;13.60;88.50;;;;;;10478003;28;20733;-72
2022/09/22 20:00:26;;;;;;;3.00;1.70;;;13.50;89.30;;;;;;10482418;28;20242;-72
2022/09/22 20:05:31;;;;;;;5.20;2.20;;;13.50;90.00;;;;;;10465643;28;20265;-72
2022/09/22 20:10:32;;;;;;;5.13;2.10;;;13.40;90.40;;;;;;10481139;28;20227;-71
2022/09/22 20:15:34;;;;;;;3.10;1.90;;;13.30;90.90;;;;;;10466228;28;20223;-72
2022/09/22 20:20:36;;;;;;;3.77;1.90;;;13.30;91.50;;;;;;10475836;28;20256;-72
2022/09/22 20:25:36;;;;;;;5.87;2.43;;;13.10;92.10;;;;;;10466264;28;20723;-71
2022/09/22 20:30:37;;;;;;;4.70;2.40;;;13.10;92.80;;;;;;10469780;28;20215;-71
2022/09/22 20:35:38;;;;;;;4.83;1.90;;;13.00;93.30;;;;;;10476164;28;20721;-71
2022/09/22 20:40:39;;;;;;;2.37;1.70;;;13.00;93.60;;;;;;10475944;28;20222;-71
2022/09/22 20:45:41;;;;;;;2.60;1.87;;;13.00;93.70;;;;;;10477898;28;20717;-72
2022/09/22 20:50:41;;;;;;;3.63;1.90;;;13.10;93.70;;;;;;10482749;28;20244;-71
2022/09/22 20:55:42;;;;;;;3.30;2.27;;;13.10;93.90;;;;;;10476557;28;20243;-72
2022/09/22 21:00:47;;;;;;;3.00;1.90;;;13.10;94.10;;;;;;10477414;28;20228;-71
2022/09/22 21:05:48;;;;;;;5.93;2.20;;;13.10;94.40;;;;;;10465291;28;20569;-71
2022/09/22 21:10:49;;;;;;;2.40;1.83;;;13.00;94.70;;;;;;10476916;28;20220;-71
2022/09/22 21:16:02;;;;;;;2.93;2.10;;;13.00;95.20;;;;;;10479527;28;20713;-71
2022/09/22 21:21:05;;;;;;;6.33;2.37;;;12.90;95.60;;;;;;10482770;28;20223;-71
2022/09/22 21:26:06;;;;;;;3.47;2.37;;;12.90;95.80;;;;;;10488457;28;20278;-71
2022/09/22 21:31:13;;;;;;;2.23;2.03;;;12.90;96.10;;;;;;10462948;28;20209;-72
2022/09/22 21:36:16;;;;;;;3.20;1.90;;;12.90;96.50;;;;;;10468894;28;20228;-71
2022/09/22 21:41:19;;;;;;;5.57;1.60;;;12.90;96.70;;;;;;10462265;28;20216;-71
2022/09/22 21:46:22;;;;;;;3.07;1.47;;;12.80;97.00;;;;;;10478941;28;20223;-70
2022/09/22 21:51:22;;;;;;;3.03;1.57;;;12.80;97.20;;;;;;10473750;28;20298;-71
2022/09/22 21:56:24;;;;;;;3.20;1.60;;;12.80;97.50;;;;;;10461996;28;20322;-70
2022/09/22 22:01:28;;;;;;;3.10;1.90;;;12.70;97.80;;;;;;10477615;28;20600;-70
2022/09/22 22:06:39;;;;;;;2.80;1.50;;;12.70;98.30;;;;;;10469651;28;20319;-70
2022/09/22 22:11:48;;;;;;;2.47;1.77;;;12.60;98.80;;;;;;10472678;28;20310;-72
2022/09/22 22:16:50;;;;;;;4.17;1.83;;;12.60;99.20;;;;;;10464010;28;20220;-71
2022/09/22 22:21:52;;;;;;;4.77;1.80;;;12.50;99.50;;;;;;10469821;28;20245;-71
2022/09/22 22:27:01;;;;;;;5.40;1.57;;;12.50;99.90;;;;;;10473139;28;20211;-71
2022/09/22 22:32:06;;;;;;;4.20;1.60;;;12.50;99.80;;;;;;10474838;28;20219;-72
2022/09/22 22:37:08;;;;;;;1.40;1.30;;;12.40;99.90;;;;;;10461122;28;20216;-70
2022/09/22 22:42:09;;;;;;;1.63;1.53;;;12.40;99.90;;;;;;10483071;28;20365;-70
2022/09/22 22:47:10;;;;;;;3.03;1.67;;;12.30;99.90;;;;;;10478718;28;20357;-69
2022/09/22 22:52:10;;;;;;;2.83;1.50;;;12.20;99.90;;;;;;10458970;28;20219;-73
2022/09/22 22:57:13;;;;;;;1.70;1.40;;;12.10;99.90;;;;;;10465719;28;20221;-70
2022/09/22 23:02:17;;;;;;;3.03;2.23;;;12.00;99.90;;;;;;10458792;28;20303;-70
2022/09/22 23:07:20;;;;;;;2.50;1.90;;;11.70;99.90;;;;;;10475757;28;20218;-69
2022/09/22 23:12:21;;;;;;;2.73;2.13;;;11.50;99.90;;;;;;10458531;28;20244;-69
2022/09/22 23:17:21;;;;;;;2.83;2.00;;;11.30;99.90;;;;;;10484012;28;20280;-72
2022/09/22 23:22:22;;;;;;;2.30;1.80;;;11.10;99.90;;;;;;10476174;28;20722;-71
2022/09/22 23:27:23;;;;;;;2.20;1.63;;;10.90;99.90;;;;;;10476889;28;20712;-72
2022/09/22 23:32:27;;;;;;;3.17;2.10;;;10.80;99.90;;;;;;10466286;28;20866;-71
2022/09/22 23:37:27;;;;;;;6.13;2.07;;;10.70;99.90;;;;;;10475623;28;20215;-71
2022/09/22 23:42:28;;;;;;;3.87;2.30;;;10.60;99.90;;;;;;10474926;28;20705;-71
2022/09/22 23:47:31;;;;;;;2.97;1.90;;;10.50;99.90;;;;;;10473577;28;20313;-71
2022/09/22 23:52:32;;;;;;;3.13;2.00;;;10.40;99.90;;;;;;10467693;28;20590;-71
2022/09/22 23:57:38;;;;;;;2.60;2.30;;;10.30;99.90;;;;;;10473721;28;20212;-70
